createdAt,value
2023-05-20T00:00:16.245Z,1.80
2023-05-20T00:02:42.710Z,1.98
2023-05-20T00:05:09.450Z,2.20
2023-05-20T00:07:36.025Z,1.83
2023-05-20T00:10:02.437Z,2.15
2023-05-20T00:12:28.790Z,2.05
2023-05-20T00:14:56.058Z,2.25
2023-05-20T00:17:22.626Z,1.90
2023-05-20T00:19:48.967Z,2.25
2023-05-20T00:22:15.341Z,2.10
2023-05-20T00:24:41.987Z,2.10
2023-05-20T00:27:08.325Z,2.40
2023-05-20T00:29:34.992Z,2.20
2023-05-20T00:32:01.415Z,2.00
2023-05-20T00:34:27.962Z,2.10
2023-05-20T00:36:54.296Z,2.05
2023-05-20T00:39:20.671Z,1.98
2023-05-20T00:41:47.012Z,2.10
2023-05-20T00:44:13.439Z,2.30
2023-05-20T00:46:39.892Z,1.98
2023-05-20T00:49:06.599Z,2.47
2023-05-20T00:51:33.579Z,2.38
2023-05-20T00:54:00.254Z,3.13
2023-05-20T00:56:26.882Z,2.83
2023-05-20T00:58:53.751Z,2.78
2023-05-20T01:01:20.264Z,2.72
2023-05-20T01:03:46.865Z,2.10
2023-05-20T01:06:13.270Z,2.10
2023-05-20T01:08:40.288Z,2.40
2023-05-20T01:11:09.021Z,1.95
2023-05-20T01:13:46.973Z,2.10
2023-05-20T01:16:17.756Z,2.33
2023-05-20T01:18:48.412Z,2.20
2023-05-20T01:21:15.801Z,2.20
2023-05-20T01:23:42.242Z,2.95
2023-05-20T01:26:13.491Z,2.38
2023-05-20T01:28:41.142Z,2.13
2023-05-20T01:31:14.477Z,2.22
2023-05-20T01:33:41.923Z,2.25
2023-05-20T01:36:09.971Z,2.70
2023-05-20T01:38:37.943Z,2.60
2023-05-20T01:41:06.525Z,2.10
2023-05-20T01:43:32.981Z,2.13
2023-05-20T01:45:59.413Z,2.22
2023-05-20T01:48:25.789Z,2.40
2023-05-20T01:50:52.130Z,2.38
2023-05-20T01:53:18.525Z,2.30
2023-05-20T01:55:44.923Z,2.13
2023-05-20T01:58:11.276Z,2.67
2023-05-20T02:00:37.769Z,2.25
2023-05-20T02:03:04.191Z,1.98
2023-05-20T02:05:30.865Z,2.40
2023-05-20T02:07:57.463Z,2.40
2023-05-20T02:10:23.804Z,1.90
2023-05-20T02:12:50.185Z,2.05
2023-05-20T02:15:16.562Z,2.20
2023-05-20T02:17:43.532Z,2.20
2023-05-20T02:20:10.238Z,2.55
2023-05-20T02:22:36.599Z,2.22
2023-05-20T02:25:03.239Z,2.20
2023-05-20T02:27:29.609Z,2.40
2023-05-20T02:29:57.110Z,1.98
2023-05-20T02:32:27.893Z,2.40
2023-05-20T02:34:55.148Z,2.90
2023-05-20T02:37:21.631Z,2.30
2023-05-20T02:39:48.072Z,2.35
2023-05-20T02:42:14.493Z,2.25
2023-05-20T02:44:41.242Z,2.13
2023-05-20T02:47:07.671Z,2.20
2023-05-20T02:49:34.013Z,2.42
2023-05-20T02:52:00.359Z,2.03
2023-05-20T02:54:26.714Z,2.20
2023-05-20T02:56:53.062Z,2.17
2023-05-20T02:59:19.441Z,2.20
2023-05-20T03:01:45.814Z,2.28
2023-05-20T03:04:12.594Z,2.30
2023-05-20T03:06:44.168Z,2.00
2023-05-20T03:09:10.569Z,2.10
2023-05-20T03:11:36.923Z,2.30
2023-05-20T03:14:03.313Z,2.13
2023-05-20T03:16:29.758Z,2.70
2023-05-20T03:18:56.099Z,2.10
2023-05-20T03:21:23.906Z,2.47
2023-05-20T03:23:50.435Z,2.20
2023-05-20T03:26:16.869Z,2.58
2023-05-20T03:28:43.284Z,2.15
2023-05-20T03:31:09.715Z,2.47
2023-05-20T03:33:36.316Z,2.50
2023-05-20T03:36:02.847Z,2.70
2023-05-20T03:38:30.378Z,2.50
2023-05-20T03:40:56.758Z,2.40
2023-05-20T03:43:23.236Z,2.65
2023-05-20T03:45:49.602Z,3.03
2023-05-20T03:48:15.973Z,2.70
2023-05-20T03:50:42.729Z,4.07
2023-05-20T03:53:09.120Z,2.85
2023-05-20T03:55:35.762Z,2.70
2023-05-20T03:58:02.445Z,3.10
2023-05-20T04:00:31.324Z,2.80
2023-05-20T04:02:58.441Z,2.83
2023-05-20T04:05:25.124Z,3.15
2023-05-20T04:07:51.551Z,3.00
2023-05-20T04:10:19.919Z,3.97
2023-05-20T04:12:46.890Z,2.50
2023-05-20T04:15:13.303Z,2.90
2023-05-20T04:17:40.526Z,2.70
2023-05-20T04:20:08.118Z,3.50
2023-05-20T04:22:34.767Z,2.83
2023-05-20T04:25:03.324Z,3.10
2023-05-20T04:27:30.323Z,2.92
2023-05-20T04:29:58.632Z,2.92
2023-05-20T04:32:25.001Z,2.85
2023-05-20T04:34:54.243Z,2.92
2023-05-20T04:37:20.866Z,3.08
2023-05-20T04:39:49.742Z,2.92
2023-05-20T04:42:18.349Z,2.70
2023-05-20T04:44:48.234Z,2.95
2023-05-20T04:47:15.296Z,2.70
2023-05-20T04:49:42.198Z,3.03
2023-05-20T04:52:08.611Z,2.75
2023-05-20T04:54:35.002Z,2.58
2023-05-20T04:57:01.482Z,2.72
2023-05-20T04:59:27.846Z,2.72
2023-05-20T05:01:54.250Z,2.53
2023-05-20T05:04:20.744Z,2.70
2023-05-20T05:06:50.118Z,2.80
2023-05-20T05:09:16.702Z,2.60
2023-05-20T05:11:43.122Z,2.45
2023-05-20T05:14:09.486Z,2.10
2023-05-20T05:16:35.878Z,2.22
2023-05-20T05:19:02.323Z,2.35
2023-05-20T05:21:28.701Z,2.20
2023-05-20T05:23:57.472Z,2.00
2023-05-20T05:26:24.613Z,2.03
2023-05-20T05:28:50.986Z,1.90
2023-05-20T05:31:17.340Z,1.83
2023-05-20T05:33:43.687Z,3.17
2023-05-20T05:36:10.095Z,2.15
2023-05-20T05:38:36.606Z,2.10
2023-05-20T05:41:03.005Z,1.92
2023-05-20T05:43:29.368Z,1.52
2023-05-20T05:45:55.935Z,1.70
2023-05-20T05:48:23.019Z,1.80
2023-05-20T05:50:49.403Z,1.92
2023-05-20T05:53:16.063Z,1.92
2023-05-20T05:55:42.497Z,1.73
2023-05-20T05:58:08.901Z,1.42
2023-05-20T06:00:35.292Z,1.80
2023-05-20T06:03:01.768Z,1.75
2023-05-20T06:05:29.675Z,1.60
2023-05-20T06:07:56.411Z,1.60
2023-05-20T06:10:22.875Z,1.98
2023-05-20T06:12:49.284Z,1.70
2023-05-20T06:15:16.013Z,1.92
2023-05-20T06:17:42.454Z,1.90
2023-05-20T06:20:09.290Z,1.63
2023-05-20T06:22:35.686Z,1.55
2023-05-20T06:25:02.372Z,1.63
2023-05-20T06:27:28.976Z,1.80
2023-05-20T06:29:55.361Z,1.60
2023-05-20T06:32:21.803Z,1.80
2023-05-20T06:34:48.252Z,1.85
2023-05-20T06:37:14.612Z,1.77
2023-05-20T06:39:40.940Z,1.73
2023-05-20T06:42:07.297Z,1.65
2023-05-20T06:44:33.721Z,1.50
2023-05-20T06:47:00.195Z,1.63
2023-05-20T06:49:26.549Z,1.45
2023-05-20T06:51:52.900Z,1.63
2023-05-20T06:54:19.231Z,1.63
2023-05-20T06:56:45.697Z,1.25
2023-05-20T06:59:12.023Z,1.60
2023-05-20T07:01:38.442Z,1.67
2023-05-20T07:04:04.968Z,2.00
2023-05-20T07:06:31.772Z,1.75
2023-05-20T07:08:58.156Z,2.10
2023-05-20T07:11:24.623Z,1.27
2023-05-20T07:13:51.022Z,1.70
2023-05-20T07:16:17.455Z,1.70
2023-05-20T07:18:43.968Z,1.70
2023-05-20T07:21:10.420Z,2.00
2023-05-20T07:23:36.779Z,1.88
2023-05-20T07:26:03.160Z,1.52
2023-05-20T07:28:29.576Z,1.50
2023-05-20T07:30:57.265Z,1.80
2023-05-20T07:33:23.656Z,1.95
2023-05-20T07:35:50.116Z,1.90
2023-05-20T07:38:16.522Z,1.95
2023-05-20T07:40:42.897Z,1.85
2023-05-20T07:43:09.409Z,1.70
2023-05-20T07:45:39.080Z,1.75
2023-05-20T07:48:05.773Z,1.60
2023-05-20T07:50:34.128Z,1.50
2023-05-20T07:53:00.543Z,1.90
2023-05-20T07:55:27.011Z,1.80
2023-05-20T07:57:53.426Z,1.80
2023-05-20T08:00:20.622Z,1.48
2023-05-20T08:02:47.226Z,1.60
2023-05-20T08:05:14.272Z,2.03
2023-05-20T08:07:40.683Z,1.85
2023-05-20T08:10:07.861Z,1.85
2023-05-20T08:12:34.239Z,2.00
2023-05-20T08:15:00.719Z,1.70
2023-05-20T08:17:27.175Z,1.88
2023-05-20T08:19:53.599Z,1.77
2023-05-20T08:22:20.130Z,1.45
2023-05-20T08:24:46.508Z,2.25
2023-05-20T08:27:12.881Z,1.55
2023-05-20T08:29:39.311Z,1.65
2023-05-20T08:32:05.934Z,1.88
2023-05-20T08:34:32.430Z,1.70
2023-05-20T08:36:58.839Z,1.55
2023-05-20T08:39:27.033Z,1.60
2023-05-20T08:41:53.673Z,1.65
2023-05-20T08:44:21.565Z,1.70
2023-05-20T08:46:48.835Z,1.40
2023-05-20T08:49:15.387Z,1.60
2023-05-20T08:51:42.966Z,1.33
2023-05-20T08:54:11.841Z,1.35
2023-05-20T08:56:39.226Z,1.20
2023-05-20T08:59:06.451Z,1.58
2023-05-20T09:01:35.275Z,1.33
2023-05-20T09:04:01.657Z,1.20
2023-05-20T09:06:46.017Z,1.40
2023-05-20T09:09:14.207Z,1.50
2023-05-20T09:11:41.872Z,1.40
2023-05-20T09:14:08.801Z,1.20
2023-05-20T09:16:35.949Z,1.33
2023-05-20T09:19:02.604Z,1.10
2023-05-20T09:21:29.871Z,1.45
2023-05-20T09:23:59.706Z,0.98
2023-05-20T09:26:29.826Z,1.45
2023-05-20T09:28:57.922Z,1.65
2023-05-20T09:31:31.369Z,1.65
2023-05-20T09:33:57.754Z,2.50
2023-05-20T09:36:27.884Z,1.35
2023-05-20T09:38:59.562Z,1.65
2023-05-20T09:41:34.264Z,1.45
2023-05-20T09:44:00.942Z,1.55
2023-05-20T09:46:27.919Z,1.23
2023-05-20T09:48:54.751Z,1.70
2023-05-20T09:51:23.409Z,1.85
2023-05-20T09:53:51.793Z,3.03
2023-05-20T09:56:21.915Z,2.47
2023-05-20T09:58:49.618Z,2.00
2023-05-20T10:01:16.174Z,2.58
2023-05-20T10:03:44.466Z,1.48
2023-05-20T10:06:21.286Z,1.00
2023-05-20T10:09:29.224Z,1.35
2023-05-20T10:12:34.856Z,1.10
2023-05-20T10:15:15.469Z,1.00
2023-05-20T10:18:26.582Z,1.13
2023-05-20T10:20:53.223Z,1.20
2023-05-20T10:23:30.512Z,1.25
2023-05-20T10:25:58.639Z,1.00
2023-05-20T10:28:30.419Z,1.15
2023-05-20T10:30:58.695Z,1.10
2023-05-20T10:33:27.506Z,1.30
2023-05-20T10:35:57.873Z,2.92
2023-05-20T10:38:24.946Z,1.93
2023-05-20T10:40:51.951Z,1.98
2023-05-20T10:43:28.494Z,1.48
2023-05-20T10:45:57.294Z,1.08
2023-05-20T10:48:34.383Z,2.50
2023-05-20T10:51:04.759Z,1.38
2023-05-20T10:53:39.661Z,2.50
2023-05-20T10:56:06.647Z,1.85
2023-05-20T10:58:39.226Z,2.15
2023-05-20T11:01:05.967Z,1.77
2023-05-20T11:03:35.073Z,1.38
2023-05-20T11:06:01.663Z,1.60
2023-05-20T11:08:31.434Z,1.33
2023-05-20T11:10:58.070Z,0.95
2023-05-20T11:13:25.292Z,1.00
2023-05-20T11:15:52.063Z,1.00
2023-05-20T11:18:19.056Z,1.25
2023-05-20T11:20:46.846Z,1.20
2023-05-20T11:23:14.944Z,0.95
2023-05-20T11:25:41.328Z,0.80
2023-05-20T11:28:14.343Z,1.10
2023-05-20T11:30:42.907Z,1.00
2023-05-20T11:33:12.774Z,1.10
2023-05-20T11:35:53.653Z,1.60
2023-05-20T11:38:21.465Z,1.00
2023-05-20T11:40:52.176Z,1.30
2023-05-20T11:43:19.441Z,1.35
2023-05-20T11:45:53.412Z,1.48
2023-05-20T11:48:19.868Z,1.42
2023-05-20T11:50:47.328Z,0.95
2023-05-20T11:53:18.731Z,1.20
2023-05-20T11:55:48.982Z,1.30
2023-05-20T11:58:17.702Z,1.17
2023-05-20T12:03:16.924Z,0.50
2023-05-20T12:05:43.683Z,1.48
2023-05-20T12:08:10.534Z,1.30
2023-05-20T12:10:39.504Z,1.25
2023-05-20T12:13:09.043Z,1.10
2023-05-20T12:15:36.586Z,1.02
2023-05-20T12:18:03.441Z,1.27
2023-05-20T12:20:31.463Z,1.08
2023-05-20T12:22:57.858Z,1.00
2023-05-20T12:25:24.255Z,1.10
2023-05-20T12:27:50.712Z,0.93
2023-05-20T12:30:21.492Z,0.90
2023-05-20T12:32:52.417Z,0.88
2023-05-20T12:37:51.598Z,1.17
2023-05-20T12:40:17.953Z,1.20
2023-05-20T12:42:44.362Z,1.10
2023-05-20T12:45:11.040Z,1.20
2023-05-20T12:47:37.534Z,1.20
2023-05-20T12:50:04.885Z,1.20
2023-05-20T12:52:31.224Z,0.85
2023-05-20T12:54:57.608Z,1.20
2023-05-20T12:57:24.567Z,1.17
2023-05-20T12:59:51.035Z,1.10
2023-05-20T13:02:17.610Z,1.20
2023-05-20T13:04:44.010Z,1.13
2023-05-20T13:07:10.648Z,1.20
2023-05-20T13:09:37.017Z,1.25
2023-05-20T13:12:03.509Z,1.30
2023-05-20T13:14:29.875Z,1.00
2023-05-20T13:16:56.482Z,1.17
2023-05-20T13:19:23.147Z,1.02
2023-05-20T13:21:50.707Z,1.10
2023-05-20T13:24:17.941Z,1.02
2023-05-20T13:26:45.440Z,0.95
2023-05-20T13:29:12.646Z,0.98
2023-05-20T13:31:39.110Z,1.00
2023-05-20T13:34:06.040Z,1.00
2023-05-20T13:36:32.847Z,1.25
2023-05-20T13:38:59.255Z,0.98
2023-05-20T13:41:26.634Z,1.15
2023-05-20T13:43:53.371Z,0.98
2023-05-20T13:46:19.821Z,1.10
2023-05-20T13:48:46.298Z,1.02
2023-05-20T13:51:12.724Z,1.10
2023-05-20T13:53:39.791Z,1.27
2023-05-20T13:56:09.064Z,0.80
2023-05-20T13:58:36.901Z,1.00
2023-05-20T14:01:04.651Z,1.10
2023-05-20T14:03:33.195Z,1.10
2023-05-20T14:06:00.809Z,1.25
2023-05-20T14:08:27.487Z,1.30
2023-05-20T14:10:55.358Z,1.13
2023-05-20T14:13:22.785Z,1.02
2023-05-20T14:15:50.639Z,1.13
2023-05-20T14:18:20.459Z,1.13
2023-05-20T14:20:47.339Z,0.90
2023-05-20T14:23:14.361Z,1.08
2023-05-20T14:25:40.862Z,0.98
2023-05-20T14:28:07.430Z,1.17
2023-05-20T14:30:34.341Z,0.77
2023-05-20T14:33:01.134Z,0.73
2023-05-20T14:35:27.611Z,0.70
2023-05-20T14:37:54.025Z,0.95
2023-05-20T14:40:20.573Z,0.75
2023-05-20T14:42:47.298Z,0.80
2023-05-20T14:45:13.789Z,0.90
2023-05-20T14:47:40.326Z,0.85
2023-05-20T14:50:07.577Z,1.00
2023-05-20T14:52:34.052Z,1.02
2023-05-20T14:55:00.556Z,1.08
2023-05-20T14:57:27.160Z,1.08
2023-05-20T14:59:53.525Z,1.20
2023-05-20T15:02:20.195Z,0.98
2023-05-20T15:04:47.773Z,0.80
2023-05-20T15:07:15.071Z,0.82
2023-05-20T15:09:42.081Z,0.80
2023-05-20T15:12:10.092Z,0.95
2023-05-20T15:14:36.580Z,1.00
2023-05-20T15:17:04.104Z,2.75
2023-05-20T15:19:32.458Z,1.02
2023-05-20T15:21:59.726Z,1.13
2023-05-20T15:24:26.222Z,1.45
2023-05-20T15:26:53.421Z,0.98
2023-05-20T15:29:19.882Z,0.70
2023-05-20T15:31:46.486Z,1.20
2023-05-20T15:34:13.023Z,1.13
2023-05-20T15:36:39.471Z,1.00
2023-05-20T15:39:06.163Z,1.00
2023-05-20T15:41:32.921Z,1.25
2023-05-20T15:43:59.280Z,1.10
2023-05-20T15:46:26.431Z,1.90
2023-05-20T15:48:56.035Z,2.22
2023-05-20T15:51:23.093Z,3.05
2023-05-20T15:53:49.658Z,1.10
2023-05-20T15:56:16.580Z,2.10
2023-05-20T15:58:43.849Z,1.20
2023-05-20T16:01:10.487Z,1.60
2023-05-20T16:03:36.942Z,1.30
2023-05-20T16:06:03.560Z,1.10
2023-05-20T16:08:29.974Z,1.15
2023-05-20T16:10:56.809Z,1.08
2023-05-20T16:13:23.191Z,1.38
2023-05-20T16:15:50.926Z,1.15
2023-05-20T16:18:17.860Z,1.17
2023-05-20T16:20:44.223Z,1.10
2023-05-20T16:23:10.825Z,1.52
2023-05-20T16:25:37.260Z,1.00
2023-05-20T16:28:03.645Z,0.80
2023-05-20T16:30:30.054Z,1.02
2023-05-20T16:32:56.536Z,0.80
2023-05-20T16:35:22.990Z,1.10
2023-05-20T16:37:50.418Z,2.08
2023-05-20T16:40:16.770Z,2.67
2023-05-20T16:42:44.547Z,1.38
2023-05-20T16:45:11.605Z,0.70
2023-05-20T16:47:38.164Z,0.90
2023-05-20T16:50:04.808Z,1.23
2023-05-20T16:52:33.626Z,1.48
2023-05-20T16:55:03.390Z,0.95
2023-05-20T16:57:30.634Z,1.20
2023-05-20T16:59:58.190Z,0.90
2023-05-20T17:02:24.642Z,1.15
2023-05-20T17:04:51.423Z,0.90
2023-05-20T17:07:18.016Z,1.00
2023-05-20T17:09:44.399Z,0.82
2023-05-20T17:12:11.024Z,0.90
2023-05-20T17:14:37.380Z,0.80
2023-05-20T17:17:04.023Z,0.88
2023-05-20T17:19:30.542Z,0.77
2023-05-20T17:21:57.121Z,0.82
2023-05-20T17:24:23.497Z,0.80
2023-05-20T17:26:49.865Z,0.80
2023-05-20T17:29:16.310Z,0.95
2023-05-20T17:31:44.038Z,0.73
2023-05-20T17:34:10.466Z,0.90
2023-05-20T17:36:36.904Z,1.30
2023-05-20T17:39:06.482Z,0.65
2023-05-20T17:41:32.832Z,0.85
2023-05-20T17:43:59.398Z,1.00
2023-05-20T17:46:25.929Z,0.75
2023-05-20T17:48:52.366Z,1.00
2023-05-20T17:51:19.208Z,1.00
2023-05-20T17:53:45.677Z,0.82
2023-05-20T17:56:13.025Z,0.90
2023-05-20T17:58:40.547Z,1.02
2023-05-20T18:01:09.260Z,0.90
2023-05-20T18:03:36.218Z,1.02
2023-05-20T18:06:05.844Z,1.00
2023-05-20T18:08:32.993Z,0.80
2023-05-20T18:10:59.621Z,0.93
2023-05-20T18:13:26.067Z,0.90
2023-05-20T18:15:52.702Z,0.80
2023-05-20T18:18:19.156Z,1.20
2023-05-20T18:20:45.774Z,0.80
2023-05-20T18:23:12.243Z,0.80
2023-05-20T18:25:41.117Z,1.00
2023-05-20T18:28:09.571Z,0.90
2023-05-20T18:30:36.203Z,0.80
2023-05-20T18:33:02.835Z,0.82
2023-05-20T18:35:29.270Z,0.90
2023-05-20T18:37:55.634Z,0.82
2023-05-20T18:40:22.325Z,1.42
2023-05-20T18:42:48.737Z,1.02
2023-05-20T18:45:15.457Z,1.05
2023-05-20T18:47:41.982Z,0.80
2023-05-20T18:50:08.773Z,1.25
2023-05-20T18:52:35.342Z,1.00
2023-05-20T18:55:01.955Z,1.20
2023-05-20T18:57:28.341Z,1.00
2023-05-20T18:59:54.788Z,1.10
2023-05-20T19:02:21.206Z,0.90
2023-05-20T19:04:47.620Z,1.20
2023-05-20T19:07:14.009Z,1.02
2023-05-20T19:09:40.384Z,1.20
2023-05-20T19:12:07.097Z,0.98
2023-05-20T19:14:33.430Z,0.90
2023-05-20T19:17:00.914Z,1.10
2023-05-20T19:19:27.552Z,0.75
2023-05-20T19:21:54.038Z,1.13
2023-05-20T19:24:20.500Z,1.20
2023-05-20T19:26:46.886Z,1.00
2023-05-20T19:29:14.918Z,1.08
2023-05-20T19:31:43.065Z,0.80
2023-05-20T19:34:09.954Z,0.90
2023-05-20T19:36:38.007Z,1.00
2023-05-20T19:39:04.376Z,1.00
2023-05-20T19:41:30.944Z,1.08
2023-05-20T19:43:57.277Z,1.10
2023-05-20T19:46:23.713Z,1.08
2023-05-20T19:48:50.322Z,1.02
2023-05-20T19:51:16.704Z,0.80
2023-05-20T19:53:43.134Z,1.10
2023-05-20T19:56:09.519Z,0.95
2023-05-20T19:58:36.248Z,0.90
2023-05-20T20:01:04.332Z,1.10
2023-05-20T20:03:31.015Z,1.00
2023-05-20T20:05:57.485Z,1.08
2023-05-20T20:08:23.902Z,1.08
2023-05-20T20:10:50.330Z,1.10
2023-05-20T20:13:16.721Z,1.10
2023-05-20T20:15:43.167Z,1.42
2023-05-20T20:18:09.649Z,1.35
2023-05-20T20:20:39.877Z,1.00
2023-05-20T20:23:09.810Z,1.20
2023-05-20T20:25:38.699Z,1.08
2023-05-20T20:28:09.684Z,1.30
2023-05-20T20:30:37.037Z,1.38
2023-05-20T20:33:06.276Z,1.40
2023-05-20T20:35:34.153Z,1.50
2023-05-20T20:38:01.374Z,1.23
2023-05-20T20:40:28.210Z,1.20
2023-05-20T20:42:58.127Z,1.20
2023-05-20T20:45:24.508Z,1.10
2023-05-20T20:47:54.547Z,1.40
2023-05-20T20:50:21.506Z,1.10
2023-05-20T20:52:47.871Z,1.30
2023-05-20T20:55:14.227Z,1.20
2023-05-20T20:57:41.809Z,1.27
2023-05-20T21:00:21.187Z,1.40
2023-05-20T21:02:48.032Z,1.10
2023-05-20T21:05:16.686Z,1.20
2023-05-20T21:07:49.543Z,1.35
2023-05-20T21:10:17.513Z,1.33
2023-05-20T21:12:43.905Z,1.20
2023-05-20T21:15:12.450Z,1.50
2023-05-20T21:17:38.915Z,1.50
2023-05-20T21:20:09.613Z,1.00
2023-05-20T21:22:35.976Z,1.02
2023-05-20T21:25:02.417Z,1.33
2023-05-20T21:27:28.771Z,1.20
2023-05-20T21:29:55.300Z,1.20
2023-05-20T21:32:21.654Z,1.23
2023-05-20T21:34:48.189Z,1.00
2023-05-20T21:37:14.584Z,1.40
2023-05-20T21:39:41.680Z,1.52
2023-05-20T21:42:10.178Z,1.48
2023-05-20T21:44:36.581Z,1.60
2023-05-20T21:47:02.979Z,1.70
2023-05-20T21:49:29.375Z,1.80
2023-05-20T21:51:55.922Z,1.88
2023-05-20T21:54:22.298Z,1.60
2023-05-20T21:56:48.671Z,1.60
2023-05-20T21:59:15.060Z,1.73
2023-05-20T22:01:41.505Z,1.70
2023-05-20T22:04:08.390Z,1.67
2023-05-20T22:06:35.906Z,2.00
2023-05-20T22:09:03.251Z,2.25
2023-05-20T22:11:29.747Z,1.88
2023-05-20T22:13:56.109Z,1.63
2023-05-20T22:16:22.547Z,1.83
2023-05-20T22:18:49.594Z,1.70
2023-05-20T22:21:16.248Z,1.70
2023-05-20T22:23:42.585Z,1.80
2023-05-20T22:26:09.754Z,1.55
2023-05-20T22:28:36.096Z,1.60
2023-05-20T22:31:03.307Z,1.77
2023-05-20T22:33:29.699Z,1.60
2023-05-20T22:35:58.014Z,1.88
2023-05-20T22:38:24.625Z,1.77
2023-05-20T22:40:50.994Z,1.50
2023-05-20T22:43:18.525Z,2.00
2023-05-20T22:45:45.214Z,1.65
2023-05-20T22:48:12.332Z,1.88
2023-05-20T22:50:38.690Z,2.30
2023-05-20T22:53:05.091Z,2.05
2023-05-20T22:55:31.489Z,2.10
2023-05-20T22:57:57.913Z,2.17
2023-05-20T23:00:24.656Z,1.90
2023-05-20T23:02:52.147Z,2.00
2023-05-20T23:05:18.575Z,1.80
2023-05-20T23:07:44.994Z,1.98
2023-05-20T23:10:11.753Z,2.15
2023-05-20T23:12:38.157Z,1.95
2023-05-20T23:15:04.880Z,2.13
2023-05-20T23:17:31.248Z,2.13
2023-05-20T23:19:57.602Z,2.05
2023-05-20T23:22:23.956Z,2.15
2023-05-20T23:24:50.509Z,2.00
2023-05-20T23:27:16.883Z,2.10
2023-05-20T23:29:43.251Z,2.40
2023-05-20T23:32:09.763Z,2.38
2023-05-20T23:34:36.172Z,2.47
2023-05-20T23:37:02.502Z,2.30
2023-05-20T23:39:28.893Z,2.45
2023-05-20T23:41:55.500Z,2.10
2023-05-20T23:44:21.895Z,2.00
2023-05-20T23:46:49.420Z,2.60
2023-05-20T23:49:18.228Z,2.45
2023-05-20T23:51:44.609Z,2.38
2023-05-20T23:54:14.546Z,2.50
2023-05-20T23:56:40.898Z,2.53
2023-05-20T23:59:07.419Z,2.25
